Details From EDDT - Berlin Tegel
To EGNC - Carlisle
Flight Number -
Tags Decoded
Created
Modified
Stats Distance 619 nm / 1,146 km
Max Altitude 0 ft / 0 m
Waypoints 9
Social Downloads 4
Likes 0
Share VATSIM

Download

Looking for another format? Having issues loading an existing format? Contact us
Advertisement - Login to hide

Notes

Decoded

Route

EDDT BKD GESTO WSR EEL SUPUR GODOS RAPUM EGNC

ID Type Via Altitude Latitude Longitude Leg Dist Tot Dist Heading (true) Name
O EDDT APT - 0 ft / 0 m 52.55668˚ 13.27499˚ - 0 nm - -
BKD VOR - 0 ft / 0 m 53.03453˚ 11.54622˚ 69 nm 69 nm 295° / 294° BRUNKENDORF VOR-DME
GESTO FIX - 0 ft / 0 m 53.17500˚ 10.08361˚ 53 nm 122 nm 280° / 279° -
WSR VOR - 0 ft / 0 m 53.34766˚ 8.87534˚ 44 nm 167 nm 284° / 283° WESER VOR
EEL VOR - 0 ft / 0 m 53.16391˚ 6.66667˚ 80 nm 247 nm 263° / 261° EELDE VOR-DME
SUPUR FIX - 0 ft / 0 m 53.01500˚ 3.56417˚ 112 nm 359 nm 267° / 264° -
GODOS FIX - 0 ft / 0 m 53.24917˚ 3.42972˚ 14 nm 374 nm 341° / 341° -
RAPUM FIX - 0 ft / 0 m 54.92167˚ -1.88278˚ 212 nm 586 nm 300° / 296° -
O EGNC APT - 0 ft / 0 m 54.93500˚ -2.81139˚ 32 nm 618 nm 272° / 271° Carlisle

Altitude Profile

Advertisement - Login to hide

Weather


0- 5 10 15 20 25 30 35+ Temperature / ° C

Clouds and Precipitation
Forecast for 2018-05-21 18:00 UTC. Updated 2 hours ago

Ground ~20,000 ft ~40,000 ft Winds

EDDT

Details ICAO EDDT (TXL)
Name Berlin Tegel
Region Germany - Civil
Timezone Europe/Berlin (UTC+2.0)
Stats Elevation 122 ft / 37 m (AMSL)
Location 52.559100° 13.290188°
Runways 2
Magnetic Variation 3.810° E

METAR

EDDT 211650Z 10012KT 030V130 CAVOK 23/04 Q1017 NOSIG

Decode

TAF

TAF EDDT 211100Z 2112/2212 07010KT CAVOK TEMPO 2112/2118 10015G25KT BECMG 2117/2120 07005KT

Decode

Departure Runways

ID Width Length Bearing (true) Bearing (mag) Surface Threshold Offset Overrun Length
08L 151 ft / 46 m 9,885 ft / 3,013 m 80.83° 77.02° Asphalt 0 ft / 0 m 226 ft / 69 m
08R 151 ft / 46 m 7,923 ft / 2,415 m 80.84° 77.03° Asphalt 341 ft / 104 m 207 ft / 63 m
26L 151 ft / 46 m 7,923 ft / 2,415 m 260.87° 257.06° Asphalt 722 ft / 220 m 157 ft / 48 m
26R 151 ft / 46 m 9,885 ft / 3,013 m 260.86° 257.05° Asphalt 0 ft / 0 m 223 ft / 68 m

EGNC

Details ICAO EGNC (CAX)
Name Carlisle
Region United Kingdom
Timezone Europe/London (UTC+1.0)
Stats Elevation 190 ft / 58 m (AMSL)
Location 54.938323° -2.810132°
Runways 2
Magnetic Variation 1.836° W

METAR

EGNC 211650Z 28008KT 240V310 9999 FEW033 19/07 Q1017

Decode

TAF

Not found

Destination Runways

ID Width Length Bearing (true) Bearing (mag) Surface Threshold Offset Overrun Length
01 75 ft / 23 m 3,045 ft / 928 m 1.13° 2.97° Asphalt 0 ft / 0 m 0 ft / 0 m
07 98 ft / 30 m 5,969 ft / 1,819 m 59.39° 61.23° Asphalt 1,493 ft / 455 m 0 ft / 0 m
19 75 ft / 23 m 3,045 ft / 928 m 181.13° 182.97° Asphalt 420 ft / 128 m 0 ft / 0 m
25 98 ft / 30 m 5,969 ft / 1,819 m 239.41° 241.25° Asphalt 781 ft / 238 m 0 ft / 0 m